Time;durP1;ratioP1;P1;durP2;ratioP2;P2;SDS_P1;SDS_P2;PMS_P1;PMS_P2;Temp;Humidity;BMP_temperature;BMP_pressure;BME280_temperature;BME280_humidity;BME280_pressure;Samples;Min_cycle;Max_cycle;Signal;HPM_P1;HPM_P2
2021/06/09 00:00:59;;;;;;;5.22;3.65;;;;;;;14.36;72.28;93859.84;5089899;28;20114;-69
2021/06/09 00:03:24;;;;;;;9.77;4.35;;;;;;;14.33;72.40;93860.50;5090004;28;20024;-69
2021/06/09 00:05:50;;;;;;;5.80;4.20;;;;;;;14.26;72.28;93861.06;5089701;28;20024;-69
2021/06/09 00:08:16;;;;;;;5.80;3.90;;;;;;;14.24;72.66;93853.34;5091139;28;20399;-69
2021/06/09 00:10:42;;;;;;;8.55;4.20;;;;;;;14.21;72.87;93859.41;5089575;28;20079;-69
2021/06/09 00:13:08;;;;;;;5.05;4.47;;;;;;;14.17;73.00;93863.88;5089683;28;20574;-69
2021/06/09 00:15:34;;;;;;;5.95;4.65;;;;;;;14.19;73.04;93869.69;5091189;28;20028;-69
2021/06/09 00:17:59;;;;;;;6.82;4.47;;;;;;;14.19;73.04;93867.00;5090847;28;20047;-68
2021/06/09 00:20:27;;;;;;;7.97;5.32;;;;;;;14.19;73.14;93861.63;5090985;28;20027;-68
2021/06/09 00:22:54;;;;;;;15.38;5.85;;;;;;;14.16;73.18;93873.00;5090684;28;20028;-69
2021/06/09 00:25:20;;;;;;;7.00;4.85;;;;;;;14.14;73.31;93864.53;5090776;28;20027;-68
2021/06/09 00:27:49;;;;;;;6.00;4.97;;;;;;;14.12;73.41;93863.31;5091011;28;20030;-68
2021/06/09 00:30:22;;;;;;;6.65;5.10;;;;;;;14.11;73.55;93870.56;5090676;28;20024;-68
2021/06/09 00:32:48;;;;;;;8.77;5.82;;;;;;;14.11;73.57;93865.22;5090792;28;20033;-68
2021/06/09 00:35:13;;;;;;;8.25;5.95;;;;;;;14.11;73.76;93859.84;5090544;28;20028;-69
2021/06/09 00:37:39;;;;;;;11.00;6.60;;;;;;;14.13;74.03;93856.84;5090848;28;20088;-68
2021/06/09 00:40:09;;;;;;;6.95;6.13;;;;;;;14.13;74.01;93857.63;5090426;28;20035;-69
2021/06/09 00:42:35;;;;;;;10.32;6.30;;;;;;;14.11;74.04;93851.03;5088956;28;20074;-69
2021/06/09 00:45:01;;;;;;;9.95;6.55;;;;;;;14.10;74.29;93857.50;5090543;28;20028;-69
2021/06/09 00:47:26;;;;;;;10.02;6.65;;;;;;;14.05;74.21;93861.97;5089256;28;20039;-69
2021/06/09 00:49:52;;;;;;;16.13;6.15;;;;;;;14.06;74.02;93862.72;5090303;28;20035;-68
2021/06/09 00:52:25;;;;;;;6.88;5.65;;;;;;;14.10;73.78;93858.28;5090190;28;20039;-69
2021/06/09 00:54:51;;;;;;;7.18;5.10;;;;;;;14.11;73.55;93856.41;5089076;28;20115;-68
2021/06/09 00:57:17;;;;;;;6.18;5.05;;;;;;;14.07;73.29;93853.59;5090207;28;20028;-69
2021/06/09 00:59:42;;;;;;;9.35;5.60;;;;;;;14.05;73.13;93866.53;5090183;28;20402;-68
2021/06/09 01:02:08;;;;;;;17.70;8.02;;;;;;;14.05;73.21;93866.53;5088798;28;20024;-69
2021/06/09 01:04:33;;;;;;;15.98;8.63;;;;;;;13.99;73.49;93873.25;5090069;28;20403;-69
2021/06/09 01:07:01;;;;;;;14.30;8.75;;;;;;;13.95;74.00;93865.09;5090163;28;20072;-69
2021/06/09 01:09:27;;;;;;;13.45;7.93;;;;;;;13.96;74.15;93861.31;5089703;28;20421;-69
2021/06/09 01:11:53;;;;;;;10.10;7.93;;;;;;;13.99;74.32;93867.88;5090042;28;20101;-69
2021/06/09 01:14:18;;;;;;;15.25;7.88;;;;;;;14.01;74.45;93871.00;5089925;28;20403;-69
2021/06/09 01:16:43;;;;;;;18.08;8.90;;;;;;;14.05;74.24;93866.53;5090135;28;20028;-69
2021/06/09 01:19:09;;;;;;;16.50;9.00;;;;;;;14.07;74.03;93863.53;5088452;28;20028;-69
2021/06/09 01:21:34;;;;;;;14.65;9.15;;;;;;;14.08;74.54;93873.13;5088641;28;20119;-69
2021/06/09 01:24:01;;;;;;;16.58;8.45;;;;;;;14.13;74.50;93868.34;5088627;28;20028;-69
2021/06/09 01:26:28;;;;;;;14.63;10.25;;;;;;;14.16;74.49;93873.00;5089736;28;20111;-69
2021/06/09 01:28:55;;;;;;;16.42;10.05;;;;;;;14.17;74.86;93863.88;5090103;28;20032;-69
2021/06/09 01:31:21;;;;;;;13.73;10.27;;;;;;;14.18;74.85;93854.69;5087106;28;20046;-70
2021/06/09 01:33:47;;;;;;;15.13;10.45;;;;;;;14.17;74.93;93847.78;5089800;28;20024;-69
2021/06/09 01:36:13;;;;;;;12.48;9.05;;;;;;;14.14;75.18;93848.44;5089888;28;20489;-69
2021/06/09 01:38:38;;;;;;;15.60;10.90;;;;;;;14.14;75.47;93859.16;5088573;28;20123;-68
2021/06/09 01:41:03;;;;;;;17.02;12.13;;;;;;;14.13;75.83;93851.47;5088545;28;20107;-69
2021/06/09 01:43:30;;;;;;;19.45;12.43;;;;;;;14.14;75.82;93853.81;5089649;28;20066;-69
2021/06/09 01:45:56;;;;;;;18.88;13.20;;;;;;;14.13;75.75;93852.25;5088561;28;20405;-69
2021/06/09 01:48:22;;;;;;;16.92;11.85;;;;;;;14.12;75.59;93852.59;5089733;28;20568;-69
2021/06/09 01:50:47;;;;;;;12.05;8.85;;;;;;;14.11;75.03;93854.50;5089556;28;20028;-69
2021/06/09 01:53:13;;;;;;;16.23;9.93;;;;;;;14.10;74.85;93862.84;5088383;28;20028;-68
2021/06/09 01:55:39;;;;;;;18.27;11.32;;;;;;;14.08;74.62;93854.38;5092838;28;20411;-68
2021/06/09 01:58:07;;;;;;;14.85;10.90;;;;;;;14.04;74.68;93865.78;5092719;28;20036;-68
2021/06/09 02:00:39;;;;;;;18.42;10.65;;;;;;;14.06;74.79;93862.72;5093582;28;20073;-69
2021/06/09 02:03:05;;;;;;;;;;;;;;;14.09;74.77;93872.03;5094189;28;20028;-69
2021/06/09 02:05:33;;;;;;;18.15;11.00;;;;;;;14.05;74.75;93872.69;5093587;28;19920;-68
2021/06/09 02:08:01;;;;;;;18.52;10.57;;;;;;;14.11;75.11;93867.88;5092441;28;20032;-69
2021/06/09 02:10:28;;;;;;;16.45;11.40;;;;;;;14.16;75.17;93867.66;5091926;28;20044;-68
2021/06/09 02:12:58;;;;;;;19.50;10.93;;;;;;;14.17;75.20;93865.78;5092147;28;20637;-68
2021/06/09 02:15:24;;;;;;;14.85;10.13;;;;;;;14.20;75.26;93865.09;5093494;28;20051;-69
2021/06/09 02:18:09;;;;;;;15.82;10.63;;;;;;;14.22;75.26;93865.53;5093046;28;20100;-69
2021/06/09 02:20:39;;;;;;;16.85;10.10;;;;;;;14.24;75.25;93869.44;5093375;28;20023;-69
2021/06/09 02:23:06;;;;;;;21.60;12.60;;;;;;;14.31;75.43;93876.94;5090882;28;20032;-68
2021/06/09 02:25:32;;;;;;;25.67;14.00;;;;;;;14.37;75.60;93878.28;5093138;28;20028;-69
2021/06/09 02:27:57;;;;;;;26.10;16.17;;;;;;;14.39;75.26;93869.88;5092679;28;20073;-69
2021/06/09 02:30:23;;;;;;;33.58;17.42;;;;;;;14.29;75.63;93881.06;5092775;28;20016;-68
2021/06/09 02:32:51;;;;;;;27.65;18.20;;;;;;;14.20;76.04;93889.22;5091266;28;20111;-68
2021/06/09 02:35:19;;;;;;;36.70;18.85;;;;;;;14.20;76.34;93887.31;5091833;28;20060;-68
2021/06/09 02:37:49;;;;;;;34.40;16.60;;;;;;;14.21;76.26;93877.38;5092553;28;20043;-69
2021/06/09 02:40:15;;;;;;;27.90;16.63;;;;;;;14.22;76.38;93871.66;5092879;28;21454;-69
2021/06/09 02:42:40;;;;;;;25.05;16.58;;;;;;;14.22;76.23;93879.72;5092761;28;20081;-69
2021/06/09 02:45:14;;;;;;;31.35;17.17;;;;;;;14.27;76.24;93876.06;5092688;28;20098;-68
2021/06/09 02:47:49;;;;;;;26.92;17.25;;;;;;;14.21;76.06;93875.47;5092594;28;20039;-69
2021/06/09 02:50:17;;;;;;;28.30;16.90;;;;;;;14.25;75.88;93875.59;5092885;28;20434;-68
2021/06/09 02:52:53;;;;;;;30.17;18.27;;;;;;;14.21;75.86;93874.72;5092416;28;20023;-69
2021/06/09 02:55:41;;;;;;;28.40;18.13;;;;;;;14.19;75.47;93874.25;5091300;28;20024;-69
2021/06/09 02:58:12;;;;;;;17.67;11.23;;;;;;;14.17;75.27;93869.22;5081639;28;20047;-69
2021/06/09 03:00:49;;;;;;;19.20;11.60;;;;;;;14.10;74.74;93865.53;5092439;28;20066;-69
2021/06/09 03:03:20;;;;;;;52.53;16.25;;;;;;;13.98;74.28;93867.09;5090775;28;20036;-69
2021/06/09 03:05:59;;;;;;;29.20;16.33;;;;;;;13.85;74.65;93868.19;5090742;28;20128;-69
2021/06/09 03:08:41;;;;;;;22.40;14.15;;;;;;;13.70;75.17;93879.53;5090904;28;20034;-69
2021/06/09 03:11:22;;;;;;;18.88;10.48;;;;;;;13.49;75.47;93872.34;5091030;28;20117;-69
2021/06/09 03:16:26;;;;;;;15.93;11.45;;;;;;;13.32;75.25;93878.66;5092143;28;20028;-69
2021/06/09 03:18:53;;;;;;;13.98;9.30;;;;;;;13.21;76.28;93878.28;5091954;28;20031;-68
2021/06/09 03:21:30;;;;;;;15.95;10.50;;;;;;;13.20;76.74;93879.38;5091778;28;20032;-69
2021/06/09 03:24:28;;;;;;;16.70;10.00;;;;;;;13.17;76.72;93884.63;5090356;28;20040;-68
2021/06/09 03:27:05;;;;;;;37.40;11.45;;;;;;;13.17;76.98;93872.00;5091971;28;20027;-69
2021/06/09 03:30:07;;;;;;;18.70;10.70;;;;;;;13.22;77.33;93873.69;5091987;28;20100;-68
2021/06/09 03:32:42;;;;;;;24.23;15.27;;;;;;;13.26;77.66;93879.94;5091742;28;20069;-69
2021/06/09 03:35:13;;;;;;;23.67;14.75;;;;;;;13.28;77.81;93877.72;5091644;28;20081;-69
2021/06/09 03:37:42;;;;;;;24.42;13.40;;;;;;;13.35;77.70;93878.03;5092055;28;20035;-68
2021/06/09 03:40:14;;;;;;;22.98;14.40;;;;;;;13.42;77.72;93866.78;5090534;28;20024;-68
2021/06/09 03:42:45;;;;;;;24.17;15.55;;;;;;;13.46;77.67;93875.69;5091660;28;20115;-68
2021/06/09 03:45:11;;;;;;;25.48;15.23;;;;;;;13.46;77.42;93880.28;5091535;28;20131;-69
2021/06/09 03:47:40;;;;;;;37.60;17.33;;;;;;;13.39;78.05;93884.28;5090616;28;20024;-68
2021/06/09 03:50:08;;;;;;;33.22;16.17;;;;;;;13.46;78.29;93889.09;5091434;28;20059;-69
2021/06/09 03:52:36;;;;;;;28.33;16.35;;;;;;;13.54;78.14;93887.44;5091319;28;20016;-69
2021/06/09 03:55:04;;;;;;;29.23;16.35;;;;;;;13.64;78.43;93877.09;5091425;28;20491;-69
2021/06/09 03:57:32;;;;;;;98.50;17.73;;;;;;;13.65;77.84;93880.53;5091004;28;20031;-69
2021/06/09 03:59:59;;;;;;;236.52;19.05;;;;;;;13.62;77.72;93878.53;5091724;28;20016;-69
2021/06/09 04:02:25;;;;;;;219.73;18.23;;;;;;;13.43;77.74;93874.47;5091141;28;20472;-69
2021/06/09 04:04:55;;;;;;;77.97;17.27;;;;;;;13.27;78.89;93876.19;5091301;28;20024;-69
2021/06/09 04:07:26;;;;;;;66.30;18.13;;;;;;;13.23;79.57;93869.91;5089802;28;20125;-69
2021/06/09 04:09:53;;;;;;;45.58;16.33;;;;;;;13.31;79.89;93870.97;5090874;28;20419;-69
2021/06/09 04:12:21;;;;;;;62.08;16.48;;;;;;;13.42;79.80;93872.91;5089776;28;20043;-69
2021/06/09 04:14:50;;;;;;;72.82;16.73;;;;;;;13.44;79.27;93869.91;5090978;28;20111;-69
2021/06/09 04:17:20;;;;;;;69.63;15.52;;;;;;;13.50;78.86;93875.84;5089226;28;20177;-69
2021/06/09 04:19:48;;;;;;;51.05;14.73;;;;;;;13.55;78.67;93868.34;5101802;28;20024;-68
2021/06/09 04:22:14;;;;;;;44.30;14.95;;;;;;;13.63;78.46;93882.78;5109965;28;20542;-69
2021/06/09 04:24:40;;;;;;;122.43;16.17;;;;;;;13.61;77.94;93885.00;5110872;28;20136;-68
2021/06/09 04:27:13;;;;;;;60.88;15.63;;;;;;;13.49;77.81;93898.34;5109818;28;20035;-68
2021/06/09 04:29:39;;;;;;;27.92;15.38;;;;;;;13.51;78.54;93893.44;5111086;28;20100;-69
2021/06/09 04:32:06;;;;;;;37.05;14.40;;;;;;;13.47;79.13;93893.31;5111095;28;20062;-68
2021/06/09 04:34:52;;;;;;;75.55;13.60;;;;;;;13.44;78.26;93897.44;5109530;28;20016;-68
2021/06/09 04:37:20;;;;;;;21.40;13.50;;;;;;;13.44;78.52;93897.44;5111007;28;20027;-69
2021/06/09 04:39:46;;;;;;;147.57;15.68;;;;;;;13.60;78.57;93899.50;5109482;28;20512;-69
2021/06/09 04:42:12;;;;;;;73.70;15.27;;;;;;;13.58;78.28;93902.50;5086575;28;20434;-69
2021/06/09 04:44:39;;;;;;;115.07;18.00;;;;;;;13.57;78.65;93908.97;5090345;28;20024;-69
2021/06/09 04:47:05;;;;;;;103.18;14.40;;;;;;;13.57;78.63;93911.66;5089099;28;20906;-69
2021/06/09 04:49:36;;;;;;;52.92;14.18;;;;;;;13.59;78.28;93906.75;5090256;28;20035;-69
2021/06/09 04:52:03;;;;;;;22.33;13.40;;;;;;;13.69;78.48;93916.25;5090151;28;20027;-69
2021/06/09 04:54:29;;;;;;;43.60;15.02;;;;;;;13.83;78.54;93911.38;5090372;28;20051;-68
2021/06/09 04:56:54;;;;;;;32.78;13.70;;;;;;;13.98;77.96;93907.31;5090032;28;20474;-69
2021/06/09 04:59:20;;;;;;;20.45;13.98;;;;;;;14.08;77.19;93906.06;5090277;28;20028;-69
2021/06/09 05:01:45;;;;;;;23.42;13.05;;;;;;;14.16;76.56;93905.19;5090141;28;20096;-69
2021/06/09 05:04:11;;;;;;;37.38;14.80;;;;;;;14.21;76.20;93904.97;5087216;28;20410;-69
2021/06/09 05:06:36;;;;;;;19.25;13.10;;;;;;;14.28;76.52;93907.09;5090140;28;20034;-68
2021/06/09 05:09:04;;;;;;;22.95;13.77;;;;;;;14.38;76.04;93909.31;5090002;28;20078;-68
2021/06/09 05:11:49;;;;;;;18.77;12.77;;;;;;;14.51;75.81;93909.31;5089958;28;20047;-68
2021/06/09 05:14:19;;;;;;;26.08;13.10;;;;;;;14.57;75.18;93902.63;5089928;28;20031;-68
2021/06/09 05:16:47;;;;;;;20.52;12.60;;;;;;;14.55;74.94;93902.16;5108684;28;20028;-68
2021/06/09 05:19:18;;;;;;;30.90;12.23;;;;;;;14.66;75.03;93910.59;5110211;28;20084;-69
2021/06/09 05:21:46;;;;;;;20.27;12.40;;;;;;;14.70;74.82;93903.44;5109124;28;20459;-69
2021/06/09 05:24:13;;;;;;;20.05;12.55;;;;;;;14.80;74.58;93906.41;5108519;28;20053;-68
2021/06/09 05:26:41;;;;;;;18.27;13.68;;;;;;;14.93;74.74;93906.41;5094611;28;20445;-68
2021/06/09 05:29:10;;;;;;;23.52;13.32;;;;;;;15.03;74.36;93911.28;5088436;28;20509;-68
2021/06/09 05:31:38;;;;;;;21.88;12.73;;;;;;;15.13;73.93;93918.09;5089851;28;20434;-68
2021/06/09 05:34:05;;;;;;;19.70;12.05;;;;;;;15.23;73.61;93917.63;5103963;28;20031;-68
2021/06/09 05:36:32;;;;;;;24.08;13.43;;;;;;;15.41;73.33;93918.91;5109966;28;20023;-68
2021/06/09 05:38:58;;;;;;;21.52;13.02;;;;;;;15.48;72.00;93920.22;5108685;28;20030;-68
2021/06/09 05:41:25;;;;;;;24.52;13.80;;;;;;;15.51;72.29;93923.00;5109685;28;20031;-68
2021/06/09 05:43:50;;;;;;;19.50;13.57;;;;;;;15.56;72.05;93924.66;5109888;28;20388;-68
2021/06/09 05:46:17;;;;;;;20.63;12.98;;;;;;;15.61;72.08;93913.66;5110028;28;20118;-69
2021/06/09 05:48:44;;;;;;;27.42;13.18;;;;;;;15.73;71.98;93913.63;5096691;28;20028;-68
2021/06/09 05:51:11;;;;;;;19.83;12.73;;;;;;;15.84;71.32;93914.69;5089425;28;20110;-69
2021/06/09 05:53:37;;;;;;;25.58;13.00;;;;;;;15.87;70.36;93920.50;5089773;28;20023;-68
2021/06/09 05:56:03;;;;;;;19.98;13.45;;;;;;;15.95;70.80;93914.19;5087975;28;20020;-69
2021/06/09 05:58:29;;;;;;;20.00;13.40;;;;;;;15.98;71.54;93927.72;5088836;28;20093;-69
2021/06/09 06:01:02;;;;;;;20.50;12.63;;;;;;;16.14;71.58;93916.19;5088018;28;20016;-69
2021/06/09 06:03:29;;;;;;;21.85;12.75;;;;;;;16.28;71.05;93910.38;5087470;28;20452;-69
2021/06/09 06:06:04;;;;;;;16.92;12.18;;;;;;;16.36;69.17;93909.44;5087631;28;20026;-69
2021/06/09 06:08:33;;;;;;;22.88;14.10;;;;;;;16.25;69.23;93907.25;5087256;28;20032;-68
2021/06/09 06:11:03;;;;;;;20.73;13.77;;;;;;;16.18;69.61;93901.72;5089144;28;20048;-68
2021/06/09 06:13:29;;;;;;;22.77;13.90;;;;;;;16.20;69.77;93907.53;5087618;28;20081;-68
2021/06/09 06:15:55;;;;;;;20.27;14.07;;;;;;;16.16;70.35;93898.59;5099378;28;20066;-73
2021/06/09 06:18:37;;;;;;;27.02;14.63;;;;;;;16.15;70.76;93902.41;5092296;28;20036;-76
2021/06/09 06:21:04;;;;;;;22.80;13.93;;;;;;;16.10;70.80;93894.59;5097839;28;20023;-79
2021/06/09 06:23:30;;;;;;;23.45;14.43;;;;;;;16.10;70.87;93883.06;5095597;28;20104;-79
2021/06/09 06:25:56;;;;;;;22.00;13.88;;;;;;;16.04;72.72;93896.00;5095945;28;20024;-76
2021/06/09 06:28:23;;;;;;;22.92;14.93;;;;;;;16.09;73.06;93898.41;5100345;28;20038;-75
2021/06/09 06:30:50;;;;;;;24.80;13.65;;;;;;;16.18;72.32;93899.03;5093745;28;20023;-79
2021/06/09 06:33:16;;;;;;;21.02;13.50;;;;;;;16.13;73.65;93899.28;5097406;28;20027;-79
2021/06/09 06:35:45;;;;;;;20.02;13.20;;;;;;;16.20;72.70;93904.84;5093189;28;20024;-79
2021/06/09 06:38:12;;;;;;;21.73;13.32;;;;;;;16.21;71.82;93909.09;5093803;28;20023;-79
2021/06/09 06:40:38;;;;;;;25.30;12.82;;;;;;;16.32;72.16;93900.50;5108319;28;20379;-79
2021/06/09 06:43:03;;;;;;;20.00;12.10;;;;;;;16.45;71.58;93896.59;5094717;28;20085;-77
2021/06/09 06:45:30;;;;;;;21.13;12.35;;;;;;;16.60;70.86;93895.78;5101925;28;20115;-79
2021/06/09 06:47:56;;;;;;;22.70;13.00;;;;;;;16.74;70.28;93898.00;5095515;28;20028;-78
2021/06/09 06:50:24;;;;;;;18.33;12.52;;;;;;;16.86;69.51;93888.31;5100533;28;20012;-78
2021/06/09 06:52:51;;;;;;;21.73;12.60;;;;;;;16.97;69.32;93895.44;5103815;28;20024;-79
2021/06/09 06:55:19;;;;;;;25.55;11.65;;;;;;;17.00;69.17;93889.38;5106517;28;20012;-79
2021/06/09 06:57:45;;;;;;;16.35;10.75;;;;;;;17.15;69.29;93901.22;5098531;28;20104;-76
2021/06/09 07:00:14;;;;;;;25.15;10.23;;;;;;;17.19;68.01;93896.69;5106024;28;20028;-78
2021/06/09 07:02:44;;;;;;;16.70;10.48;;;;;;;17.19;68.50;93895.91;5105638;28;20031;-78
2021/06/09 07:05:09;;;;;;;15.57;9.75;;;;;;;17.31;67.60;93903.84;5107428;28;20019;-76
2021/06/09 07:07:39;;;;;;;15.32;9.80;;;;;;;17.37;67.17;93893.59;5097677;28;20107;-77
2021/06/09 07:10:06;;;;;;;13.52;9.25;;;;;;;17.44;66.60;93889.13;5103986;28;20051;-80
2021/06/09 07:12:35;;;;;;;16.92;9.55;;;;;;;17.50;66.02;93896.91;5103745;28;20023;-77
2021/06/09 07:15:04;;;;;;;18.48;8.90;;;;;;;17.57;65.40;93894.34;5099544;28;20403;-77
2021/06/09 07:17:32;;;;;;;14.38;8.30;;;;;;;17.72;65.64;93890.78;5100281;28;20027;-76
2021/06/09 07:19:59;;;;;;;13.23;8.43;;;;;;;17.84;66.11;93896.03;5099002;28;20055;-77
2021/06/09 07:22:24;;;;;;;10.98;8.30;;;;;;;17.83;64.51;93888.31;5102048;28;20055;-76
2021/06/09 07:24:49;;;;;;;11.25;7.20;;;;;;;17.90;62.25;93899.22;5103198;28;20024;-78
2021/06/09 07:27:17;;;;;;;17.88;7.47;;;;;;;17.81;63.73;93904.81;5107262;28;20053;-75
2021/06/09 07:29:44;;;;;;;16.70;7.60;;;;;;;17.92;62.15;93905.03;5098484;28;20469;-74
2021/06/09 07:32:09;;;;;;;9.07;5.95;;;;;;;17.91;62.24;93906.19;5096580;28;20024;-74
2021/06/09 07:34:35;;;;;;;9.20;6.22;;;;;;;17.94;62.27;93904.69;5096972;28;20024;-74
2021/06/09 07:37:05;;;;;;;12.32;6.68;;;;;;;17.98;62.17;93910.91;5118538;27;20020;-74
2021/06/09 07:39:52;;;;;;;9.75;5.60;;;;;;;17.94;61.30;93904.69;5104388;28;20157;-75
2021/06/09 07:42:20;;;;;;;9.40;5.70;;;;;;;17.97;60.62;93903.94;5090018;28;20047;-75
2021/06/09 07:44:51;;;;;;;13.00;6.50;;;;;;;18.08;61.17;93901.47;5099890;28;20110;-74
2021/06/09 07:47:17;;;;;;;13.43;6.05;;;;;;;18.23;60.58;93895.91;5101484;28;20020;-75
2021/06/09 07:49:47;;;;;;;12.63;6.22;;;;;;;18.41;60.71;93900.84;5091519;28;20024;-75
2021/06/09 07:52:15;;;;;;;8.20;5.35;;;;;;;18.43;59.94;93893.16;5103684;28;20023;-74
2021/06/09 07:54:43;;;;;;;9.35;5.75;;;;;;;18.59;59.60;93901.91;5109748;28;20027;-74
2021/06/09 07:57:10;;;;;;;13.52;5.65;;;;;;;18.67;59.40;93894.69;5111093;28;20034;-74
2021/06/09 07:59:36;;;;;;;7.38;5.00;;;;;;;18.80;60.44;93896.06;5109511;28;20024;-74
2021/06/09 08:02:02;;;;;;;11.98;5.90;;;;;;;18.93;60.34;93902.03;5104700;28;20151;-74
2021/06/09 08:04:28;;;;;;;9.35;5.75;;;;;;;19.06;61.10;93897.19;5099352;28;20213;-75
2021/06/09 08:06:54;;;;;;;9.40;5.55;;;;;;;19.20;58.54;93893.91;5101407;28;20027;-75
2021/06/09 08:09:19;;;;;;;13.60;4.55;;;;;;;19.30;57.10;93895.97;5096809;28;20522;-74
2021/06/09 08:11:45;;;;;;;14.60;8.52;;;;;;;19.43;56.58;93904.59;5090468;28;20040;-75
2021/06/09 08:14:15;;;;;;;13.43;5.70;;;;;;;19.53;56.40;93898.53;5107358;28;20030;-74
2021/06/09 08:16:40;;;;;;;8.80;5.07;;;;;;;19.69;56.14;93901.03;5093436;28;20027;-75
2021/06/09 08:19:06;;;;;;;9.00;4.82;;;;;;;19.79;55.73;93902.34;5104219;28;20061;-74
2021/06/09 08:21:33;;;;;;;13.57;5.22;;;;;;;19.88;55.53;93908.22;5094664;28;20024;-75
2021/06/09 08:23:58;;;;;;;17.90;5.93;;;;;;;19.96;54.04;93903.66;5099260;28;20036;-74
2021/06/09 08:26:25;;;;;;;15.05;5.38;;;;;;;19.95;53.66;93899.41;5100383;28;20077;-75
2021/06/09 08:28:52;;;;;;;21.58;4.85;;;;;;;20.05;53.10;93898.75;5103275;28;20034;-76
2021/06/09 08:31:26;;;;;;;7.80;4.15;;;;;;;20.12;53.08;93901.50;5106253;28;20050;-75
2021/06/09 08:33:54;;;;;;;8.75;4.40;;;;;;;20.10;52.72;93897.63;5100879;28;20031;-73
2021/06/09 08:36:20;;;;;;;7.93;3.60;;;;;;;20.26;52.61;93906.28;5096798;28;20040;-74
2021/06/09 08:38:51;;;;;;;6.25;3.70;;;;;;;20.42;51.88;93895.97;5099391;28;20073;-74
2021/06/09 08:41:20;;;;;;;6.43;3.40;;;;;;;20.61;51.35;93900.38;5095339;28;20028;-73
2021/06/09 08:43:47;;;;;;;9.23;3.10;;;;;;;20.76;49.60;93895.06;5096602;28;20020;-74
2021/06/09 08:46:14;;;;;;;5.97;3.00;;;;;;;20.91;47.82;93901.38;5108510;28;20028;-74
2021/06/09 08:48:41;;;;;;;6.22;3.17;;;;;;;21.02;45.97;93897.59;5098675;28;20032;-75
2021/06/09 08:51:09;;;;;;;8.07;2.55;;;;;;;21.11;44.57;93893.75;5099996;28;20403;-75
2021/06/09 08:53:37;;;;;;;5.28;3.30;;;;;;;21.16;46.87;93896.09;5099405;28;20557;-74
2021/06/09 08:56:04;;;;;;;5.63;4.00;;;;;;;21.25;48.10;93901.97;5097834;28;20028;-75
2021/06/09 08:58:29;;;;;;;9.07;4.63;;;;;;;21.36;47.21;93891.94;5101245;28;20028;-77
2021/06/09 09:00:55;;;;;;;7.05;4.47;;;;;;;21.29;46.88;93894.63;5108726;28;20039;-77
2021/06/09 09:03:21;;;;;;;11.60;4.72;;;;;;;21.29;46.56;93894.63;5101990;28;20032;-78
2021/06/09 09:05:46;;;;;;;9.45;4.75;;;;;;;21.23;46.85;93886.06;5100516;28;20027;-73
2021/06/09 09:08:12;;;;;;;7.93;4.13;;;;;;;21.34;47.60;93893.47;5094341;28;20169;-75
2021/06/09 09:10:37;;;;;;;9.02;3.92;;;;;;;21.47;46.60;93889.28;5101662;28;20118;-76
2021/06/09 09:13:05;;;;;;;6.97;3.00;;;;;;;21.50;45.56;93893.19;5093149;28;20022;-75
2021/06/09 09:15:30;;;;;;;6.90;3.40;;;;;;;21.49;45.92;93880.78;5092496;28;20053;-73
2021/06/09 09:17:59;;;;;;;4.90;2.95;;;;;;;21.56;45.16;93888.97;5095098;28;20012;-76
2021/06/09 09:20:30;;;;;;;6.72;3.97;;;;;;;21.58;44.85;93890.13;5104053;28;20462;-75
2021/06/09 09:22:58;;;;;;;7.50;3.13;;;;;;;21.64;43.85;93885.09;5098043;28;20098;-73
2021/06/09 09:25:27;;;;;;;8.50;3.70;;;;;;;21.75;43.92;93894.03;5099235;28;20034;-75
2021/06/09 09:27:56;;;;;;;6.80;3.45;;;;;;;21.86;43.82;93891.38;5101749;28;20020;-75
2021/06/09 09:30:24;;;;;;;5.70;2.83;;;;;;;22.00;43.94;93894.13;5100202;28;20038;-76
2021/06/09 09:33:21;;;;;;;5.65;2.95;;;;;;;22.07;42.83;93887.91;5098713;28;20030;-76
2021/06/09 09:35:50;;;;;;;4.40;2.88;;;;;;;22.08;43.72;93886.75;5102489;28;20446;-76
2021/06/09 09:38:15;;;;;;;13.85;4.07;;;;;;;22.20;43.57;93886.38;5102168;28;20027;-74
2021/06/09 09:41:13;;;;;;;4.07;2.50;;;;;;;22.35;42.35;93875.56;5101825;28;20032;-76
2021/06/09 09:43:58;;;;;;;6.40;2.80;;;;;;;22.32;40.33;93879.06;5091991;28;20067;-75
2021/06/09 09:46:30;;;;;;;8.18;2.47;;;;;;;22.37;41.04;93870.53;5098365;28;20024;-75
2021/06/09 09:49:19;;;;;;;3.97;2.30;;;;;;;22.53;40.58;93864.69;5098425;28;20034;-74
2021/06/09 09:51:46;;;;;;;6.93;2.80;;;;;;;22.69;40.03;93872.44;5096520;28;20042;-75
2021/06/09 09:54:13;;;;;;;4.13;2.65;;;;;;;22.84;38.72;93872.03;5105273;28;20069;-76
2021/06/09 09:56:40;;;;;;;14.02;3.28;;;;;;;23.02;40.00;93863.88;5097057;28;20483;-77
2021/06/09 09:59:08;;;;;;;6.13;2.78;;;;;;;23.13;40.91;93868.53;5104315;28;20053;-76
2021/06/09 10:01:52;;;;;;;4.63;2.70;;;;;;;23.26;38.87;93863.41;5101120;28;20024;-76
2021/06/09 10:04:22;;;;;;;6.18;2.55;;;;;;;23.27;36.26;93860.31;5104503;28;20435;-76
2021/06/09 10:06:50;;;;;;;3.72;2.63;;;;;;;22.91;37.43;93857.66;5095285;28;20110;-76
2021/06/09 10:09:27;;;;;;;5.78;3.30;;;;;;;22.82;39.73;93849.16;5098207;28;20469;-76
2021/06/09 10:12:01;;;;;;;4.30;2.50;;;;;;;22.87;38.18;93845.25;5098518;28;20071;-76
2021/06/09 10:14:39;;;;;;;4.70;2.10;;;;;;;22.92;36.88;93853.78;5093319;28;20024;-76
2021/06/09 10:17:06;;;;;;;3.90;2.00;;;;;;;23.19;37.64;93858.78;5100201;28;20031;-76
2021/06/09 10:19:43;;;;;;;3.97;1.90;;;;;;;23.39;35.72;93848.25;5107455;28;20028;-76
2021/06/09 10:22:09;;;;;;;2.83;1.95;;;;;;;23.66;36.91;93851.22;5092660;28;20024;-76
2021/06/09 10:25:06;;;;;;;3.17;1.60;;;;;;;23.91;35.09;93853.81;5098317;28;20024;-74
2021/06/09 10:27:49;;;;;;;3.50;1.75;;;;;;;24.08;34.92;93838.56;5096455;28;20040;-74
2021/06/09 10:30:18;;;;;;;3.97;1.88;;;;;;;24.18;34.59;93843.16;5106655;28;20027;-74
2021/06/09 10:33:03;;;;;;;3.80;2.10;;;;;;;24.21;32.58;93836.88;5094983;28;20493;-75
2021/06/09 10:35:35;;;;;;;4.18;2.15;;;;;;;24.22;32.51;93833.00;5099836;28;20495;-75
2021/06/09 10:38:01;;;;;;;2.67;1.50;;;;;;;24.22;31.85;93833.00;5101605;28;20035;-76
2021/06/09 10:40:29;;;;;;;4.78;1.90;;;;;;;24.20;32.58;93843.53;5103562;28;20105;-77
2021/06/09 10:42:57;;;;;;;2.92;1.70;;;;;;;24.36;33.55;93836.78;5107758;28;20031;-75
2021/06/09 10:45:23;;;;;;;4.18;2.20;;;;;;;24.38;32.15;93834.44;5107973;28;20513;-75
2021/06/09 10:47:55;;;;;;;6.32;2.42;;;;;;;24.48;34.01;93830.84;5106095;28;20107;-75
2021/06/09 10:50:21;;;;;;;6.93;2.65;;;;;;;24.70;34.26;93841.59;5099091;28;20034;-75
2021/06/09 10:52:47;;;;;;;5.28;2.22;;;;;;;24.58;35.33;93830.00;5109114;28;20023;-75
2021/06/09 10:55:13;;;;;;;7.40;2.38;;;;;;;24.45;36.86;93839.06;5101494;28;20024;-76
2021/06/09 10:57:39;;;;;;;4.60;1.90;;;;;;;24.13;38.22;93835.41;5103296;28;20026;-74
2021/06/09 11:00:06;;;;;;;11.48;2.47;;;;;;;23.91;38.88;93829.31;5105589;28;20051;-75
2021/06/09 11:02:32;;;;;;;4.38;2.03;;;;;;;23.78;36.85;93828.25;5106339;28;20032;-77
2021/06/09 11:05:05;;;;;;;6.50;2.22;;;;;;;23.70;36.98;93824.00;5103578;28;20108;-74
2021/06/09 11:07:36;;;;;;;5.68;1.90;;;;;;;23.76;35.90;93814.22;5098690;28;20089;-76
2021/06/09 11:10:08;;;;;;;3.97;1.90;;;;;;;23.69;36.12;93806.91;5102391;28;20054;-76
2021/06/09 11:12:37;;;;;;;5.15;2.20;;;;;;;23.61;39.09;93817.03;5097792;28;20115;-76
2021/06/09 11:15:16;;;;;;;3.88;2.10;;;;;;;23.50;36.99;93810.88;5107616;28;20057;-75
2021/06/09 11:17:50;;;;;;;5.70;2.33;;;;;;;23.24;35.10;93804.00;5100678;28;20016;-75
2021/06/09 11:20:23;;;;;;;3.55;1.70;;;;;;;23.30;35.03;93796.97;5095400;28;20020;-74
2021/06/09 11:22:52;;;;;;;4.82;2.10;;;;;;;23.43;34.69;93798.09;5093320;28;20065;-75
2021/06/09 11:25:33;;;;;;;2.67;1.80;;;;;;;23.70;35.37;93796.78;5101937;28;20165;-74
2021/06/09 11:28:09;;;;;;;4.95;2.03;;;;;;;24.09;35.09;93787.59;5121705;27;20039;-75
2021/06/09 11:30:34;;;;;;;3.53;1.70;;;;;;;24.49;34.99;93791.53;5101771;28;20407;-75
2021/06/09 11:33:02;;;;;;;6.32;1.95;;;;;;;24.85;35.48;93785.75;5103435;28;20031;-74
2021/06/09 11:35:47;;;;;;;6.63;2.35;;;;;;;25.16;32.49;93783.84;5102766;28;20028;-75